aviador You're here:

CYPX Decoded Metar

PUVIRGNITUQ in QC, CANADA
Report Time2017-12-15 23:00:00
UTC Time2017-12-15 23:43:04
Flight Rules lifr LIFR
Wind330° at 25 kt
W.Decomp.*RWY 01: 23.6 kt HW 8.1 kt LCW
W.Rank330° ranks 6
Current wind is above 330° avg. (11.2)
Visibility1207 m
Phenomena:Light Snow
Clouds:Few 021 Hf
Expected CloudBase > 400 ft AGL from Temp-Dew spread
CeilingNone
Temp-10°C (ISA -25)
Dew Point-11°C (92% RH)
AAT-22.1°C
QNH991 hPa
Density Alt-2,231 ft
Elevation75 ft
Report Wrong Elevation
Raw Report
CYPX 152300Z AUTO 33025KT 3/4SM -SN FEW021 M10/M11 A2926 RMK
SLP911=

Extra information for CYPX:More info

Metar Taf Metar & Taf Last 4 Metars F.Rules Stats Wind Profile Meteogram Temp Stats Airport Information Weather charts Add Link Nearby VenuesMetar ALERT Operation Metar Decoded Social comments